createdAt,value
2023-03-16T00:00:19.714Z,11.77
2023-03-16T00:02:46.991Z,11.52
2023-03-16T00:05:15.061Z,12.48
2023-03-16T00:07:42.692Z,11.60
2023-03-16T00:10:12.638Z,11.55
2023-03-16T00:12:40.308Z,12.30
2023-03-16T00:15:08.125Z,13.10
2023-03-16T00:17:35.361Z,12.60
2023-03-16T00:20:06.821Z,11.50
2023-03-16T00:22:34.698Z,12.20
2023-03-16T00:25:02.058Z,12.30
2023-03-16T00:27:29.770Z,11.23
2023-03-16T00:29:57.444Z,11.75
2023-03-16T00:32:27.633Z,11.25
2023-03-16T00:34:55.355Z,12.10
2023-03-16T00:37:24.153Z,11.60
2023-03-16T00:39:52.814Z,11.07
2023-03-16T00:42:20.713Z,10.77
2023-03-16T00:44:48.013Z,11.15
2023-03-16T00:47:15.376Z,10.93
2023-03-16T00:49:44.756Z,10.68
2023-03-16T00:52:16.734Z,11.45
2023-03-16T00:54:46.141Z,10.95
2023-03-16T00:57:17.641Z,10.73
2023-03-16T00:59:46.052Z,10.20
2023-03-16T01:02:14.595Z,10.40
2023-03-16T01:04:43.855Z,10.35
2023-03-16T01:07:13.906Z,11.32
2023-03-16T01:09:42.575Z,10.85
2023-03-16T01:12:14.848Z,10.98
2023-03-16T01:14:42.888Z,11.20
2023-03-16T01:17:10.384Z,11.43
2023-03-16T01:19:38.478Z,10.15
2023-03-16T01:22:07.207Z,11.00
2023-03-16T01:24:35.031Z,11.68
2023-03-16T01:27:02.841Z,11.57
2023-03-16T01:29:30.377Z,12.85
2023-03-16T01:31:59.668Z,12.38
2023-03-16T01:34:27.255Z,12.05
2023-03-16T01:36:55.144Z,12.25
2023-03-16T01:39:44.724Z,13.13
2023-03-16T01:42:13.946Z,12.40
2023-03-16T01:44:54.513Z,12.80
2023-03-16T01:47:23.397Z,13.15
2023-03-16T01:49:55.079Z,13.48
2023-03-16T01:52:33.420Z,13.73
2023-03-16T01:55:08.958Z,13.90
2023-03-16T01:57:42.748Z,13.82
2023-03-16T02:00:21.621Z,12.57
2023-03-16T02:03:15.189Z,13.38
2023-03-16T02:05:59.691Z,13.18
2023-03-16T02:08:28.480Z,13.15
2023-03-16T02:10:57.039Z,12.50
2023-03-16T02:13:36.832Z,14.02
2023-03-16T02:16:07.478Z,13.40
2023-03-16T02:18:35.766Z,12.98
2023-03-16T02:21:18.014Z,11.05
2023-03-16T02:23:46.328Z,11.93
2023-03-16T02:26:23.821Z,11.27
2023-03-16T02:29:02.382Z,10.70
2023-03-16T02:31:31.898Z,11.68
2023-03-16T02:33:59.507Z,10.20
2023-03-16T02:36:27.490Z,11.30
2023-03-16T02:38:54.786Z,10.45
2023-03-16T02:41:22.537Z,10.32
2023-03-16T02:44:24.398Z,10.32
2023-03-16T02:46:57.514Z,10.85
2023-03-16T02:49:34.644Z,9.90
2023-03-16T02:52:01.923Z,10.27
2023-03-16T02:54:31.635Z,9.98
2023-03-16T02:56:58.852Z,10.25
2023-03-16T02:59:27.484Z,10.63
2023-03-16T03:01:54.934Z,9.40
2023-03-16T03:04:23.622Z,9.77
2023-03-16T03:06:51.917Z,9.90
2023-03-16T03:09:20.946Z,9.43
2023-03-16T03:11:52.336Z,10.38
2023-03-16T03:14:21.633Z,10.73
2023-03-16T03:16:52.276Z,10.35
2023-03-16T03:19:19.542Z,10.48
2023-03-16T03:21:46.781Z,9.77
2023-03-16T03:24:14.022Z,10.40
2023-03-16T03:26:41.293Z,10.32
2023-03-16T03:29:15.722Z,10.00
2023-03-16T03:31:43.763Z,10.65
2023-03-16T03:34:11.876Z,10.82
2023-03-16T03:36:39.476Z,10.48
2023-03-16T03:39:07.517Z,10.38
2023-03-16T03:41:36.161Z,11.23
2023-03-16T03:44:04.873Z,10.30
2023-03-16T03:46:34.238Z,11.00
2023-03-16T03:49:05.275Z,10.27
2023-03-16T03:51:35.067Z,11.23
2023-03-16T03:54:05.761Z,11.82
2023-03-16T03:56:59.377Z,11.27
2023-03-16T03:59:27.386Z,10.98
2023-03-16T04:02:22.247Z,11.75
2023-03-16T04:04:53.162Z,11.70
2023-03-16T04:07:20.532Z,11.70
2023-03-16T04:09:49.467Z,12.13
2023-03-16T04:12:35.003Z,12.80
2023-03-16T04:15:03.787Z,13.52
2023-03-16T04:17:36.415Z,12.80
2023-03-16T04:20:13.345Z,10.73
2023-03-16T04:22:42.928Z,12.02
2023-03-16T04:25:11.652Z,12.95
2023-03-16T04:27:40.714Z,13.60
2023-03-16T04:30:14.016Z,12.75
2023-03-16T04:32:46.747Z,13.02
2023-03-16T04:35:19.086Z,14.48
2023-03-16T04:37:52.946Z,12.13
2023-03-16T04:43:01.076Z,11.70
2023-03-16T04:45:29.360Z,13.00
2023-03-16T04:47:57.545Z,12.13
2023-03-16T04:50:25.622Z,13.07
2023-03-16T04:52:54.979Z,12.82
2023-03-16T04:55:23.119Z,12.50
2023-03-16T04:57:52.722Z,12.35
2023-03-16T05:00:22.376Z,12.48
2023-03-16T05:03:27.942Z,10.98
2023-03-16T05:05:55.572Z,11.35
2023-03-16T05:08:24.091Z,11.80
2023-03-16T05:10:58.097Z,10.85
2023-03-16T05:13:26.288Z,11.77
2023-03-16T05:15:54.760Z,10.43
2023-03-16T05:18:27.380Z,11.63
2023-03-16T05:20:56.473Z,11.02
2023-03-16T05:23:27.696Z,11.00
2023-03-16T05:26:01.184Z,10.48
2023-03-16T05:28:31.195Z,10.65
2023-03-16T05:31:03.998Z,11.05
2023-03-16T05:33:38.179Z,10.45
2023-03-16T05:36:09.912Z,10.27
2023-03-16T05:38:39.420Z,10.68
2023-03-16T05:41:09.825Z,10.05
2023-03-16T05:44:00.089Z,11.07
2023-03-16T05:46:35.937Z,10.93
2023-03-16T05:49:06.529Z,10.07
2023-03-16T05:51:33.766Z,9.85
2023-03-16T05:54:03.077Z,10.30
2023-03-16T05:56:36.410Z,11.32
2023-03-16T05:59:03.835Z,10.15
2023-03-16T06:01:31.292Z,9.98
2023-03-16T06:03:58.822Z,10.88
2023-03-16T06:06:29.117Z,9.70
2023-03-16T06:09:05.487Z,9.40
2023-03-16T06:11:33.127Z,9.95
2023-03-16T06:14:01.401Z,9.75
2023-03-16T06:16:28.987Z,9.25
2023-03-16T06:18:59.591Z,9.35
2023-03-16T06:23:57.694Z,8.82
2023-03-16T06:26:25.412Z,8.68
2023-03-16T06:28:52.700Z,8.40
2023-03-16T06:31:20.032Z,8.60
2023-03-16T06:33:47.489Z,8.43
2023-03-16T06:36:15.164Z,8.13
2023-03-16T06:38:47.378Z,8.05
2023-03-16T06:41:32.358Z,7.55
2023-03-16T06:43:59.769Z,8.32
2023-03-16T06:46:27.731Z,7.50
2023-03-16T06:48:55.533Z,8.02
2023-03-16T06:51:23.889Z,7.93
2023-03-16T06:53:51.967Z,8.18
2023-03-16T06:56:20.008Z,7.60
2023-03-16T06:58:47.841Z,7.05
2023-03-16T07:01:15.838Z,8.02
2023-03-16T07:03:43.207Z,7.50
2023-03-16T07:06:18.424Z,8.23
2023-03-16T07:08:46.115Z,7.65
2023-03-16T07:11:15.023Z,8.20
2023-03-16T07:13:42.594Z,7.78
2023-03-16T07:16:10.879Z,7.45
2023-03-16T07:18:39.989Z,7.63
2023-03-16T07:21:10.939Z,7.68
2023-03-16T07:23:38.913Z,6.75
2023-03-16T07:26:08.434Z,7.18
2023-03-16T07:31:09.629Z,6.60
2023-03-16T07:33:40.294Z,7.10
2023-03-16T07:36:11.783Z,6.78
2023-03-16T07:38:45.513Z,6.45
2023-03-16T07:41:14.235Z,6.30
2023-03-16T07:43:41.860Z,6.03
2023-03-16T07:46:14.011Z,6.35
2023-03-16T07:48:45.409Z,5.93
2023-03-16T07:51:14.012Z,5.88
2023-03-16T07:53:43.224Z,6.10
2023-03-16T07:56:18.556Z,7.53
2023-03-16T07:58:50.460Z,9.68
2023-03-16T08:01:17.867Z,11.43
2023-03-16T08:03:45.073Z,8.10
2023-03-16T08:06:12.510Z,8.15
2023-03-16T08:08:39.793Z,8.10
2023-03-16T08:11:07.825Z,6.93
2023-03-16T08:13:47.307Z,6.50
2023-03-16T08:16:15.266Z,6.05
2023-03-16T08:18:45.081Z,6.53
2023-03-16T08:21:12.616Z,6.28
2023-03-16T08:23:40.225Z,5.68
2023-03-16T08:26:09.123Z,5.57
2023-03-16T08:28:38.251Z,5.20
2023-03-16T08:31:09.663Z,6.10
2023-03-16T08:33:46.846Z,4.93
2023-03-16T08:36:17.539Z,5.10
2023-03-16T08:39:03.768Z,5.30
2023-03-16T08:41:37.983Z,5.00
2023-03-16T08:44:10.825Z,5.00
2023-03-16T08:46:39.550Z,5.22
2023-03-16T08:49:07.912Z,5.22
2023-03-16T08:51:35.267Z,4.35
2023-03-16T08:54:02.784Z,4.55
2023-03-16T08:56:30.809Z,4.57
2023-03-16T08:58:58.594Z,5.03
2023-03-16T09:01:26.754Z,4.97
2023-03-16T09:03:55.138Z,5.28
2023-03-16T09:06:22.605Z,4.30
2023-03-16T09:08:49.989Z,4.40
2023-03-16T09:11:19.219Z,4.90
2023-03-16T09:13:47.472Z,4.85
2023-03-16T09:16:16.145Z,4.95
2023-03-16T09:18:44.093Z,4.60
2023-03-16T09:21:15.295Z,5.03
2023-03-16T09:23:43.174Z,6.20
2023-03-16T09:26:12.858Z,5.18
2023-03-16T09:28:42.812Z,4.32
2023-03-16T09:31:15.673Z,4.28
2023-03-16T09:33:43.121Z,4.68
2023-03-16T09:36:12.155Z,4.70
2023-03-16T09:38:40.023Z,4.80
2023-03-16T09:41:26.556Z,4.32
2023-03-16T09:44:10.940Z,4.50
2023-03-16T09:46:45.633Z,4.85
2023-03-16T09:49:17.721Z,4.82
2023-03-16T09:51:48.955Z,5.15
2023-03-16T09:54:29.618Z,5.28
2023-03-16T09:56:58.318Z,5.15
2023-03-16T09:59:26.864Z,6.13
2023-03-16T10:02:26.514Z,4.97
2023-03-16T10:05:09.705Z,4.55
2023-03-16T10:08:22.485Z,3.83
2023-03-16T10:11:15.646Z,3.97
2023-03-16T10:14:01.445Z,4.00
2023-03-16T10:16:39.730Z,4.28
2023-03-16T10:19:34.909Z,4.30
2023-03-16T10:22:10.313Z,4.47
2023-03-16T10:24:43.672Z,3.70
2023-03-16T10:27:25.779Z,4.40
2023-03-16T10:29:53.140Z,4.10
2023-03-16T10:32:20.566Z,4.30
2023-03-16T10:34:56.578Z,3.80
2023-03-16T10:37:26.498Z,3.70
2023-03-16T10:39:56.512Z,3.83
2023-03-16T10:42:25.886Z,3.58
2023-03-16T10:45:01.892Z,4.03
2023-03-16T10:47:34.215Z,4.65
2023-03-16T10:50:18.604Z,4.13
2023-03-16T10:52:48.336Z,4.00
2023-03-16T10:55:29.102Z,4.45
2023-03-16T10:57:57.423Z,3.72
2023-03-16T11:00:36.262Z,4.18
2023-03-16T11:03:20.469Z,4.40
2023-03-16T11:05:47.707Z,4.25
2023-03-16T11:08:25.738Z,4.97
2023-03-16T11:10:58.551Z,4.38
2023-03-16T11:13:34.568Z,4.25
2023-03-16T11:16:26.562Z,4.18
2023-03-16T11:19:06.172Z,4.00
2023-03-16T11:21:51.654Z,4.40
2023-03-16T11:24:34.825Z,6.10
2023-03-16T11:27:09.046Z,4.70
2023-03-16T11:29:36.229Z,4.63
2023-03-16T11:32:06.454Z,4.43
2023-03-16T11:34:35.507Z,4.30
2023-03-16T11:37:27.479Z,4.63
2023-03-16T11:40:14.364Z,4.53
2023-03-16T11:42:56.361Z,4.50
2023-03-16T11:45:51.806Z,4.53
2023-03-16T11:48:19.052Z,4.55
2023-03-16T11:51:12.783Z,4.50
2023-03-16T11:53:51.131Z,4.95
2023-03-16T11:56:39.381Z,4.90
2023-03-16T11:59:18.376Z,5.35
2023-03-16T12:02:06.075Z,4.55
2023-03-16T12:05:10.145Z,4.47
2023-03-16T12:08:05.056Z,4.30
2023-03-16T12:10:41.976Z,4.25
2023-03-16T12:13:23.085Z,4.28
2023-03-16T12:15:57.082Z,4.32
2023-03-16T12:18:36.550Z,4.85
2023-03-16T12:21:17.586Z,4.68
2023-03-16T12:23:56.763Z,4.60
2023-03-16T12:26:30.053Z,4.38
2023-03-16T12:29:00.105Z,4.57
2023-03-16T12:31:31.018Z,5.15
2023-03-16T12:34:16.596Z,4.50
2023-03-16T12:37:03.004Z,5.03
2023-03-16T12:39:40.740Z,4.93
2023-03-16T12:42:21.555Z,4.80
2023-03-16T12:45:02.663Z,5.10
2023-03-16T12:47:43.615Z,4.75
2023-03-16T12:50:13.371Z,5.20
2023-03-16T12:52:43.180Z,5.20
2023-03-16T12:55:27.966Z,4.65
2023-03-16T12:58:06.641Z,4.97
2023-03-16T13:00:42.732Z,5.50
2023-03-16T13:03:22.380Z,4.90
2023-03-16T13:05:56.186Z,5.47
2023-03-16T13:08:23.669Z,5.80
2023-03-16T13:11:14.388Z,5.35
2023-03-16T13:14:04.243Z,5.38
2023-03-16T13:16:36.420Z,6.15
2023-03-16T13:19:29.577Z,5.15
2023-03-16T13:22:27.377Z,7.00
2023-03-16T13:25:16.550Z,6.07
2023-03-16T13:27:46.708Z,5.60
2023-03-16T13:30:29.017Z,8.43
2023-03-16T13:33:07.139Z,6.43
2023-03-16T13:35:36.457Z,5.22
2023-03-16T13:38:06.324Z,5.20
2023-03-16T13:40:33.722Z,5.53
2023-03-16T13:43:02.182Z,5.97
2023-03-16T13:45:33.903Z,6.05
2023-03-16T13:48:05.615Z,5.50
2023-03-16T13:50:34.646Z,5.60
2023-03-16T13:53:15.825Z,5.43
2023-03-16T13:55:47.036Z,5.55
2023-03-16T14:00:48.189Z,5.75
2023-03-16T14:03:18.603Z,5.63
2023-03-16T14:05:46.323Z,5.57
2023-03-16T14:08:19.792Z,6.20
2023-03-16T14:10:47.727Z,6.03
2023-03-16T14:13:29.621Z,6.75
2023-03-16T14:15:58.590Z,5.95
2023-03-16T14:18:44.244Z,5.80
2023-03-16T14:21:16.954Z,5.55
2023-03-16T14:23:51.336Z,5.32
2023-03-16T14:26:19.935Z,5.40
2023-03-16T14:29:01.993Z,5.40
2023-03-16T14:31:39.776Z,5.18
2023-03-16T14:34:28.982Z,5.20
2023-03-16T14:37:34.275Z,5.60
2023-03-16T14:40:06.102Z,5.35
2023-03-16T14:42:33.894Z,5.05
2023-03-16T14:45:07.741Z,6.53
2023-03-16T14:47:42.049Z,5.57
2023-03-16T14:50:14.088Z,6.20
2023-03-16T14:52:41.797Z,5.60
2023-03-16T14:55:14.762Z,5.50
2023-03-16T14:57:42.867Z,5.85
2023-03-16T15:00:12.774Z,5.55
2023-03-16T15:02:41.571Z,5.97
2023-03-16T15:05:15.731Z,6.35
2023-03-16T15:07:45.653Z,5.93
2023-03-16T15:10:16.132Z,5.70
2023-03-16T15:12:54.090Z,5.82
2023-03-16T15:15:24.159Z,5.72
2023-03-16T15:17:53.701Z,5.95
2023-03-16T15:20:25.676Z,6.07
2023-03-16T15:22:53.829Z,7.10
2023-03-16T15:25:37.380Z,8.02
2023-03-16T15:28:16.117Z,6.30
2023-03-16T15:30:51.256Z,6.43
2023-03-16T15:33:18.761Z,7.65
2023-03-16T15:35:49.357Z,6.45
2023-03-16T15:38:22.184Z,6.30
2023-03-16T15:40:51.386Z,7.35
2023-03-16T15:43:21.390Z,7.00
2023-03-16T15:45:49.345Z,6.03
2023-03-16T15:48:17.092Z,6.43
2023-03-16T15:50:52.432Z,6.70
2023-03-16T15:53:32.190Z,6.18
2023-03-16T15:56:09.639Z,6.00
2023-03-16T15:58:38.244Z,5.95
2023-03-16T16:01:07.717Z,6.40
2023-03-16T16:03:35.381Z,6.65
2023-03-16T16:06:03.053Z,6.45
2023-03-16T16:08:30.408Z,6.30
2023-03-16T16:10:57.941Z,7.18
2023-03-16T16:13:45.512Z,7.15
2023-03-16T16:16:16.003Z,7.88
2023-03-16T16:18:43.869Z,6.97
2023-03-16T16:21:22.295Z,7.22
2023-03-16T16:23:52.331Z,7.00
2023-03-16T16:26:50.849Z,6.63
2023-03-16T16:29:22.841Z,7.20
2023-03-16T16:31:51.796Z,6.78
2023-03-16T16:34:21.930Z,7.18
2023-03-16T16:36:49.770Z,8.57
2023-03-16T16:39:17.497Z,7.90
2023-03-16T16:41:45.149Z,7.57
2023-03-16T16:44:24.549Z,7.90
2023-03-16T16:46:53.729Z,8.10
2023-03-16T16:49:30.622Z,8.13
2023-03-16T16:51:59.218Z,8.50
2023-03-16T16:54:31.744Z,7.95
2023-03-16T16:57:00.724Z,7.50
2023-03-16T16:59:33.834Z,7.60
2023-03-16T17:02:12.838Z,8.77
2023-03-16T17:04:40.165Z,8.25
2023-03-16T17:07:12.545Z,8.80
2023-03-16T17:09:40.103Z,10.63
2023-03-16T17:12:21.493Z,8.30
2023-03-16T17:14:49.744Z,8.88
2023-03-16T17:17:18.194Z,9.02
2023-03-16T17:19:47.064Z,8.02
2023-03-16T17:22:24.765Z,8.32
2023-03-16T17:24:54.052Z,8.80
2023-03-16T17:27:30.693Z,8.43
2023-03-16T17:29:59.643Z,9.05
2023-03-16T17:32:27.574Z,8.73
2023-03-16T17:34:55.367Z,9.30
2023-03-16T17:37:23.412Z,9.32
2023-03-16T17:39:52.045Z,8.65
2023-03-16T17:42:23.213Z,9.35
2023-03-16T17:44:53.070Z,13.02
2023-03-16T17:47:26.958Z,9.77
2023-03-16T17:49:55.090Z,10.50
2023-03-16T17:52:25.945Z,9.50
2023-03-16T17:54:54.306Z,10.05
2023-03-16T17:57:27.600Z,9.43
2023-03-16T17:59:55.594Z,9.65
2023-03-16T18:02:40.102Z,9.90
2023-03-16T18:05:24.151Z,9.27
2023-03-16T18:07:52.907Z,9.75
2023-03-16T18:10:24.394Z,9.85
2023-03-16T18:12:59.683Z,9.32
2023-03-16T18:15:31.471Z,8.70
2023-03-16T18:18:00.730Z,8.48
2023-03-16T18:20:33.802Z,8.20
2023-03-16T18:23:10.365Z,8.43
2023-03-16T18:25:42.404Z,8.55
2023-03-16T18:30:41.451Z,8.90
2023-03-16T18:33:22.351Z,8.48
2023-03-16T18:35:52.030Z,9.23
2023-03-16T18:38:34.693Z,8.63
2023-03-16T18:41:22.903Z,8.90
2023-03-16T18:43:52.673Z,8.50
2023-03-16T18:46:23.273Z,8.85
2023-03-16T18:48:53.874Z,8.30
2023-03-16T18:51:21.907Z,7.95
2023-03-16T18:53:50.442Z,7.85
2023-03-16T18:56:21.396Z,8.13
2023-03-16T18:58:50.325Z,8.07
2023-03-16T19:01:22.818Z,8.07
2023-03-16T19:03:52.674Z,7.97
2023-03-16T19:06:35.088Z,8.15
2023-03-16T19:09:18.668Z,8.30
2023-03-16T19:11:46.301Z,7.90
2023-03-16T19:14:19.669Z,7.88
2023-03-16T19:16:47.511Z,8.02
2023-03-16T19:19:15.605Z,7.85
2023-03-16T19:21:43.784Z,7.93
2023-03-16T19:24:25.863Z,8.30
2023-03-16T19:26:54.140Z,7.47
2023-03-16T19:29:33.504Z,8.13
2023-03-16T19:32:02.137Z,7.63
2023-03-16T19:34:32.655Z,7.93
2023-03-16T19:37:00.157Z,7.72
2023-03-16T19:39:27.951Z,7.60
2023-03-16T19:41:59.073Z,8.30
2023-03-16T19:44:28.501Z,7.50
2023-03-16T19:46:56.252Z,7.82
2023-03-16T19:49:26.163Z,8.70
2023-03-16T19:51:55.489Z,11.90
2023-03-16T19:54:33.935Z,9.68
2023-03-16T19:57:12.476Z,8.18
2023-03-16T19:59:41.779Z,7.80
2023-03-16T20:02:39.251Z,8.27
2023-03-16T20:05:07.875Z,8.25
2023-03-16T20:07:38.278Z,9.10
2023-03-16T20:10:06.807Z,7.97
2023-03-16T20:12:35.877Z,8.35
2023-03-16T20:15:03.707Z,9.00
2023-03-16T20:17:33.000Z,9.73
2023-03-16T20:20:00.357Z,9.63
2023-03-16T20:22:28.819Z,8.57
2023-03-16T20:24:58.115Z,9.05
2023-03-16T20:27:27.822Z,8.68
2023-03-16T20:29:55.814Z,8.75
2023-03-16T20:32:30.829Z,8.80
2023-03-16T20:34:58.700Z,7.75
2023-03-16T20:37:29.015Z,7.95
2023-03-16T20:39:58.341Z,7.53
2023-03-16T20:42:34.194Z,7.97
2023-03-16T20:45:02.279Z,7.90
2023-03-16T20:47:29.539Z,7.70
2023-03-16T20:49:57.615Z,8.80
2023-03-16T20:52:30.422Z,8.20
2023-03-16T20:54:58.858Z,7.82
2023-03-16T20:57:29.175Z,8.68
2023-03-16T20:59:57.792Z,7.97
2023-03-16T21:02:28.561Z,7.95
2023-03-16T21:04:57.757Z,7.95
2023-03-16T21:07:25.174Z,8.48
2023-03-16T21:09:52.894Z,8.20
2023-03-16T21:12:34.818Z,7.93
2023-03-16T21:15:08.270Z,7.88
2023-03-16T21:17:39.348Z,7.70
2023-03-16T21:20:19.293Z,7.55
2023-03-16T21:22:47.152Z,7.95
2023-03-16T21:25:30.924Z,8.15
2023-03-16T21:28:01.555Z,8.13
2023-03-16T21:30:35.741Z,8.10
2023-03-16T21:33:04.121Z,7.50
2023-03-16T21:35:36.494Z,7.05
2023-03-16T21:38:19.120Z,8.00
2023-03-16T21:40:47.976Z,7.50
2023-03-16T21:43:16.467Z,8.95
2023-03-16T21:45:44.699Z,11.00
2023-03-16T21:48:24.088Z,10.38
2023-03-16T21:50:53.978Z,9.10
2023-03-16T21:53:27.254Z,8.93
2023-03-16T21:55:55.834Z,9.30
2023-03-16T21:58:24.114Z,8.93
2023-03-16T22:00:52.867Z,8.45
2023-03-16T22:03:23.004Z,10.75
2023-03-16T22:05:50.855Z,9.40
2023-03-16T22:08:28.392Z,9.13
2023-03-16T22:10:55.853Z,9.07
2023-03-16T22:13:24.178Z,9.15
2023-03-16T22:15:53.170Z,19.38
2023-03-16T22:18:33.833Z,18.65
2023-03-16T22:21:03.729Z,12.32
2023-03-16T22:23:35.987Z,9.43
2023-03-16T22:26:05.339Z,9.52
2023-03-16T22:28:33.190Z,8.88
2023-03-16T22:31:04.394Z,8.60
2023-03-16T22:33:35.748Z,8.75
2023-03-16T22:36:09.367Z,8.93
2023-03-16T22:38:37.240Z,8.50
2023-03-16T22:41:05.656Z,8.93
2023-03-16T22:43:37.012Z,8.52
2023-03-16T22:46:04.589Z,8.48
2023-03-16T22:48:32.295Z,11.30
2023-03-16T22:51:03.987Z,9.25
2023-03-16T22:53:45.028Z,9.98
2023-03-16T22:56:13.015Z,9.00
2023-03-16T22:58:49.885Z,8.57
2023-03-16T23:01:21.013Z,9.32
2023-03-16T23:03:50.478Z,8.63
2023-03-16T23:06:25.448Z,9.00
2023-03-16T23:08:56.946Z,8.05
2023-03-16T23:11:33.651Z,8.75
2023-03-16T23:14:01.740Z,8.50
2023-03-16T23:16:36.738Z,8.65
2023-03-16T23:19:12.484Z,8.80
2023-03-16T23:21:49.988Z,8.05
2023-03-16T23:24:18.065Z,7.28
2023-03-16T23:26:45.657Z,7.55
2023-03-16T23:29:14.112Z,7.25
2023-03-16T23:31:41.782Z,7.65
2023-03-16T23:34:14.346Z,7.53
2023-03-16T23:36:41.601Z,8.00
2023-03-16T23:39:10.574Z,6.82
2023-03-16T23:41:39.543Z,7.28
2023-03-16T23:44:08.174Z,6.95
2023-03-16T23:46:35.825Z,7.10
2023-03-16T23:49:05.211Z,6.90
2023-03-16T23:51:37.153Z,6.57
2023-03-16T23:54:23.987Z,6.93
2023-03-16T23:56:51.757Z,6.43
2023-03-16T23:59:20.500Z,6.20
